createdAt,value
2023-03-17T00:01:48.158Z,5.75
2023-03-17T00:04:15.968Z,6.35
2023-03-17T00:06:43.961Z,6.27
2023-03-17T00:09:14.683Z,6.63
2023-03-17T00:11:42.598Z,6.53
2023-03-17T00:14:11.964Z,6.35
2023-03-17T00:16:42.906Z,6.40
2023-03-17T00:19:16.458Z,6.72
2023-03-17T00:21:45.115Z,7.07
2023-03-17T00:24:15.260Z,6.80
2023-03-17T00:26:43.330Z,6.40
2023-03-17T00:29:13.231Z,7.22
2023-03-17T00:31:41.023Z,6.47
2023-03-17T00:34:13.009Z,6.55
2023-03-17T00:36:48.188Z,6.70
2023-03-17T00:39:17.366Z,6.70
2023-03-17T00:44:14.472Z,7.63
2023-03-17T00:46:42.619Z,6.78
2023-03-17T00:51:44.683Z,7.00
2023-03-17T00:54:12.966Z,6.82
2023-03-17T00:56:42.249Z,7.35
2023-03-17T00:59:21.707Z,7.07
2023-03-17T01:01:50.042Z,7.13
2023-03-17T01:04:18.049Z,6.70
2023-03-17T01:06:46.236Z,7.38
2023-03-17T01:09:16.311Z,6.95
2023-03-17T01:11:44.183Z,7.30
2023-03-17T01:14:12.982Z,6.70
2023-03-17T01:16:42.371Z,7.20
2023-03-17T01:19:11.843Z,7.07
2023-03-17T01:21:39.681Z,6.97
2023-03-17T01:24:08.139Z,8.07
2023-03-17T01:26:36.108Z,7.20
2023-03-17T01:29:04.709Z,7.28
2023-03-17T01:31:32.658Z,7.00
2023-03-17T01:34:02.529Z,8.60
2023-03-17T01:36:30.481Z,7.20
2023-03-17T01:38:58.549Z,6.70
2023-03-17T01:41:26.303Z,7.13
2023-03-17T01:43:54.125Z,7.50
2023-03-17T01:46:27.245Z,6.30
2023-03-17T01:49:04.252Z,7.32
2023-03-17T01:51:37.665Z,7.80
2023-03-17T01:54:09.331Z,8.13
2023-03-17T01:56:38.622Z,7.28
2023-03-17T01:59:10.710Z,7.57
2023-03-17T02:01:42.053Z,8.05
2023-03-17T02:04:12.070Z,7.10
2023-03-17T02:06:55.021Z,7.57
2023-03-17T02:09:25.161Z,7.50
2023-03-17T02:11:54.365Z,7.38
2023-03-17T02:14:22.315Z,7.35
2023-03-17T02:16:50.289Z,7.47
2023-03-17T02:19:19.472Z,7.30
2023-03-17T02:21:51.288Z,7.57
2023-03-17T02:24:26.297Z,7.20
2023-03-17T02:26:56.364Z,7.38
2023-03-17T02:29:24.417Z,8.75
2023-03-17T02:31:52.235Z,7.82
2023-03-17T02:34:20.265Z,7.10
2023-03-17T02:36:49.498Z,7.15
2023-03-17T02:39:17.561Z,7.10
2023-03-17T02:41:45.882Z,7.88
2023-03-17T02:44:13.666Z,7.80
2023-03-17T02:46:41.440Z,7.73
2023-03-17T02:49:09.782Z,7.53
2023-03-17T02:51:37.706Z,7.25
2023-03-17T02:54:06.943Z,7.43
2023-03-17T02:56:34.795Z,8.27
2023-03-17T02:59:02.596Z,7.13
2023-03-17T03:01:30.834Z,7.47
2023-03-17T03:03:58.965Z,7.28
2023-03-17T03:06:27.039Z,7.63
2023-03-17T03:08:54.867Z,7.47
2023-03-17T03:11:24.694Z,7.60
2023-03-17T03:13:52.490Z,7.47
2023-03-17T03:16:20.790Z,7.50
2023-03-17T03:18:48.625Z,7.38
2023-03-17T03:21:16.431Z,7.50
2023-03-17T03:23:44.284Z,7.03
2023-03-17T03:26:12.133Z,7.07
2023-03-17T03:28:41.529Z,6.82
2023-03-17T03:31:09.615Z,7.15
2023-03-17T03:33:37.693Z,6.82
2023-03-17T03:36:06.465Z,7.03
2023-03-17T03:38:34.426Z,7.13
2023-03-17T03:41:02.293Z,7.50
2023-03-17T03:43:30.312Z,7.25
2023-03-17T03:45:59.424Z,7.05
2023-03-17T03:48:27.439Z,7.47
2023-03-17T03:50:57.956Z,6.90
2023-03-17T03:53:26.071Z,7.10
2023-03-17T03:55:54.140Z,7.70
2023-03-17T03:58:21.907Z,6.78
2023-03-17T04:00:49.708Z,7.03
2023-03-17T04:03:18.837Z,6.97
2023-03-17T04:05:46.652Z,9.83
2023-03-17T04:08:14.730Z,9.35
2023-03-17T04:10:42.967Z,7.63
2023-03-17T04:13:10.745Z,7.50
2023-03-17T04:15:38.530Z,7.47
2023-03-17T04:18:06.557Z,7.25
2023-03-17T04:20:36.097Z,7.78
2023-03-17T04:23:03.924Z,7.80
2023-03-17T04:25:32.414Z,8.30
2023-03-17T04:28:00.292Z,7.75
2023-03-17T04:30:28.375Z,8.40
2023-03-17T04:32:56.530Z,7.57
2023-03-17T04:35:24.410Z,7.05
2023-03-17T04:37:53.519Z,6.83
2023-03-17T04:40:21.542Z,7.32
2023-03-17T04:42:49.337Z,8.30
2023-03-17T04:45:17.189Z,7.32
2023-03-17T04:47:46.280Z,7.53
2023-03-17T04:50:14.899Z,7.35
2023-03-17T04:52:42.830Z,8.60
2023-03-17T04:55:12.847Z,8.70
2023-03-17T04:57:40.650Z,7.47
2023-03-17T05:00:10.328Z,7.15
2023-03-17T05:02:38.819Z,8.02
2023-03-17T05:05:07.375Z,6.97
2023-03-17T05:07:35.172Z,6.93
2023-03-17T05:10:03.049Z,10.77
2023-03-17T05:12:32.355Z,9.38
2023-03-17T05:15:00.580Z,11.93
2023-03-17T05:17:28.476Z,10.93
2023-03-17T05:19:56.339Z,9.50
2023-03-17T05:22:24.113Z,7.05
2023-03-17T05:24:51.962Z,6.78
2023-03-17T05:27:20.054Z,7.38
2023-03-17T05:29:49.685Z,7.13
2023-03-17T05:32:18.281Z,6.80
2023-03-17T05:34:46.255Z,6.90
2023-03-17T05:37:14.224Z,6.50
2023-03-17T05:39:42.179Z,6.35
2023-03-17T05:42:10.042Z,7.47
2023-03-17T05:44:37.943Z,7.25
2023-03-17T05:47:08.376Z,7.03
2023-03-17T05:49:36.816Z,6.38
2023-03-17T05:52:04.927Z,6.32
2023-03-17T05:54:32.835Z,7.43
2023-03-17T05:57:00.971Z,6.68
2023-03-17T05:59:28.968Z,6.85
2023-03-17T06:01:57.606Z,6.75
2023-03-17T06:04:27.001Z,8.35
2023-03-17T06:06:54.795Z,6.90
2023-03-17T06:09:22.831Z,7.35
2023-03-17T06:11:50.799Z,6.32
2023-03-17T06:14:19.442Z,6.38
2023-03-17T06:16:47.290Z,6.97
2023-03-17T06:19:15.063Z,6.15
2023-03-17T06:21:44.502Z,5.65
2023-03-17T06:24:12.528Z,9.82
2023-03-17T06:26:40.388Z,8.73
2023-03-17T06:29:09.771Z,8.07
2023-03-17T06:31:38.313Z,6.38
2023-03-17T06:34:06.654Z,8.15
2023-03-17T06:36:35.908Z,6.43
2023-03-17T06:39:06.141Z,6.00
2023-03-17T06:41:33.918Z,7.88
2023-03-17T06:44:02.817Z,6.35
2023-03-17T06:46:30.898Z,6.53
2023-03-17T06:49:00.119Z,5.80
2023-03-17T06:51:28.287Z,5.80
2023-03-17T06:53:56.119Z,7.30
2023-03-17T06:56:30.132Z,8.48
2023-03-17T06:58:58.677Z,5.68
2023-03-17T07:01:27.137Z,5.93
2023-03-17T07:03:55.365Z,6.75
2023-03-17T07:06:24.121Z,6.97
2023-03-17T07:08:52.243Z,7.03
2023-03-17T07:11:20.241Z,5.97
2023-03-17T07:13:49.641Z,7.10
2023-03-17T07:16:19.495Z,5.57
2023-03-17T07:18:47.345Z,6.40
2023-03-17T07:21:15.595Z,7.63
2023-03-17T07:23:43.567Z,5.97
2023-03-17T07:26:11.354Z,6.75
2023-03-17T07:28:40.263Z,6.22
2023-03-17T07:31:11.470Z,6.53
2023-03-17T07:33:39.572Z,6.70
2023-03-17T07:36:08.952Z,7.32
2023-03-17T07:38:37.128Z,7.53
2023-03-17T07:41:09.696Z,9.20
2023-03-17T07:43:38.526Z,6.80
2023-03-17T07:46:07.311Z,7.47
2023-03-17T07:48:40.701Z,6.82
2023-03-17T07:51:10.082Z,6.75
2023-03-17T07:53:37.856Z,9.63
2023-03-17T07:56:06.930Z,9.98
2023-03-17T07:58:34.744Z,8.50
2023-03-17T08:01:03.476Z,7.15
2023-03-17T08:03:31.781Z,7.57
2023-03-17T08:06:01.490Z,8.27
2023-03-17T08:08:29.652Z,9.77
2023-03-17T08:11:03.749Z,7.87
2023-03-17T08:13:31.742Z,10.50
2023-03-17T08:15:59.641Z,7.77
2023-03-17T08:18:28.059Z,8.75
2023-03-17T08:20:56.191Z,9.18
2023-03-17T08:23:26.456Z,6.32
2023-03-17T08:25:57.842Z,7.20
2023-03-17T08:28:25.904Z,6.43
2023-03-17T08:30:54.276Z,7.38
2023-03-17T08:33:22.501Z,6.75
2023-03-17T08:35:50.994Z,6.80
2023-03-17T08:38:18.821Z,6.13
2023-03-17T08:40:50.432Z,7.00
2023-03-17T08:43:18.629Z,9.23
2023-03-17T08:45:46.556Z,9.23
2023-03-17T08:48:15.162Z,7.47
2023-03-17T08:50:43.033Z,7.53
2023-03-17T08:53:10.874Z,12.60
2023-03-17T08:55:38.834Z,6.50
2023-03-17T08:58:09.277Z,8.10
2023-03-17T09:00:37.295Z,7.00
2023-03-17T09:03:05.848Z,6.85
2023-03-17T09:05:35.640Z,6.88
2023-03-17T09:08:05.606Z,5.60
2023-03-17T09:10:33.925Z,6.13
2023-03-17T09:13:03.943Z,6.85
2023-03-17T09:15:34.741Z,7.10
2023-03-17T09:18:03.153Z,7.45
2023-03-17T09:20:31.388Z,10.68
2023-03-17T09:22:59.854Z,9.05
2023-03-17T09:25:28.207Z,7.30
2023-03-17T09:27:56.609Z,6.70
2023-03-17T09:30:26.790Z,5.80
2023-03-17T09:32:56.140Z,7.38
2023-03-17T09:35:23.986Z,7.82
2023-03-17T09:37:51.765Z,6.57
2023-03-17T09:40:22.135Z,8.23
2023-03-17T09:42:59.124Z,7.03
2023-03-17T09:45:34.529Z,5.80
2023-03-17T09:48:18.228Z,5.85
2023-03-17T09:50:49.782Z,5.35
2023-03-17T09:53:20.750Z,6.60
2023-03-17T09:55:52.547Z,5.78
2023-03-17T09:58:26.994Z,7.97
2023-03-17T10:00:55.029Z,5.50
2023-03-17T10:03:25.656Z,9.38
2023-03-17T10:05:53.955Z,10.35
2023-03-17T10:08:31.587Z,5.28
2023-03-17T10:11:09.365Z,5.32
2023-03-17T10:13:50.574Z,5.30
2023-03-17T10:16:22.162Z,6.30
2023-03-17T10:18:56.859Z,6.13
2023-03-17T10:21:30.244Z,3.85
2023-03-17T10:23:59.233Z,4.80
2023-03-17T10:26:32.752Z,5.00
2023-03-17T10:29:04.055Z,6.30
2023-03-17T10:31:35.288Z,4.70
2023-03-17T10:34:15.742Z,9.60
2023-03-17T10:36:45.795Z,6.47
2023-03-17T10:39:15.940Z,7.27
2023-03-17T10:41:53.497Z,4.00
2023-03-17T10:44:35.614Z,5.90
2023-03-17T10:47:03.617Z,4.70
2023-03-17T10:49:37.653Z,3.65
2023-03-17T10:52:08.715Z,6.03
2023-03-17T10:54:38.393Z,3.25
2023-03-17T10:57:10.533Z,2.92
2023-03-17T10:59:45.043Z,4.10
2023-03-17T11:02:25.749Z,3.33
2023-03-17T11:05:01.700Z,4.55
2023-03-17T11:07:35.613Z,5.97
2023-03-17T11:10:06.453Z,6.47
2023-03-17T11:12:37.074Z,4.15
2023-03-17T11:15:07.282Z,3.80
2023-03-17T11:17:42.215Z,5.60
2023-03-17T11:20:34.927Z,3.37
2023-03-17T11:23:10.609Z,2.88
2023-03-17T11:25:43.263Z,3.70
2023-03-17T11:28:19.849Z,3.28
2023-03-17T11:30:57.189Z,3.42
2023-03-17T11:33:36.190Z,3.10
2023-03-17T11:36:15.620Z,2.70
2023-03-17T11:38:55.835Z,4.95
2023-03-17T11:41:44.847Z,6.40
2023-03-17T11:44:31.671Z,3.83
2023-03-17T11:47:08.999Z,3.35
2023-03-17T11:49:39.120Z,3.00
2023-03-17T11:52:14.017Z,3.53
2023-03-17T11:54:54.195Z,3.70
2023-03-17T11:57:27.077Z,4.97
2023-03-17T11:59:59.790Z,4.25
2023-03-17T12:02:33.042Z,3.17
2023-03-17T12:05:05.093Z,5.05
2023-03-17T12:07:37.402Z,3.10
2023-03-17T12:10:17.036Z,5.85
2023-03-17T12:12:50.932Z,5.70
2023-03-17T12:15:25.595Z,3.40
2023-03-17T12:17:58.607Z,4.13
2023-03-17T12:20:34.721Z,3.67
2023-03-17T12:23:12.058Z,2.90
2023-03-17T12:25:49.696Z,4.93
2023-03-17T12:28:22.907Z,3.90
2023-03-17T12:30:54.596Z,3.42
2023-03-17T12:33:29.434Z,5.28
2023-03-17T12:35:58.319Z,3.58
2023-03-17T12:38:35.550Z,3.97
2023-03-17T12:41:35.312Z,5.20
2023-03-17T12:44:08.035Z,3.53
2023-03-17T12:46:51.593Z,5.60
2023-03-17T12:49:57.932Z,5.55
2023-03-17T12:52:38.198Z,15.40
2023-03-17T12:55:14.397Z,4.40
2023-03-17T12:57:44.013Z,5.65
2023-03-17T13:00:24.448Z,3.08
2023-03-17T13:03:08.106Z,4.28
2023-03-17T13:05:37.261Z,3.95
2023-03-17T13:08:10.971Z,4.32
2023-03-17T13:10:42.645Z,3.65
2023-03-17T13:13:37.822Z,4.60
2023-03-17T13:16:23.378Z,5.07
2023-03-17T13:18:53.624Z,4.32
2023-03-17T13:21:26.192Z,3.20
2023-03-17T13:24:01.364Z,3.05
2023-03-17T13:27:00.705Z,3.65
2023-03-17T13:29:47.094Z,4.65
2023-03-17T13:32:35.373Z,4.40
2023-03-17T13:35:19.868Z,3.13
2023-03-17T13:38:02.906Z,4.30
2023-03-17T13:40:39.473Z,3.03
2023-03-17T13:43:28.876Z,4.03
2023-03-17T13:46:16.275Z,5.40
2023-03-17T13:48:44.277Z,4.72
2023-03-17T13:51:21.219Z,4.50
2023-03-17T13:53:53.849Z,4.40
2023-03-17T13:56:26.314Z,5.18
2023-03-17T13:59:06.118Z,3.85
2023-03-17T14:01:40.683Z,5.32
2023-03-17T14:04:18.444Z,3.92
2023-03-17T14:06:48.018Z,5.05
2023-03-17T14:09:32.395Z,5.60
2023-03-17T14:12:03.301Z,6.97
2023-03-17T14:14:41.945Z,4.55
2023-03-17T14:17:16.373Z,4.47
2023-03-17T14:20:04.276Z,5.68
2023-03-17T14:22:32.196Z,4.60
2023-03-17T14:25:03.732Z,5.93
2023-03-17T14:27:35.451Z,6.75
2023-03-17T14:30:16.688Z,4.00
2023-03-17T14:32:48.358Z,6.13
2023-03-17T14:35:16.389Z,5.47
2023-03-17T14:37:46.156Z,5.13
2023-03-17T14:40:23.036Z,4.40
2023-03-17T14:42:51.392Z,5.78
2023-03-17T14:45:29.087Z,3.90
2023-03-17T14:47:57.908Z,4.95
2023-03-17T14:50:28.629Z,4.18
2023-03-17T14:52:58.389Z,5.67
2023-03-17T14:55:35.425Z,6.23
2023-03-17T14:58:09.952Z,5.80
2023-03-17T15:00:44.828Z,4.85
2023-03-17T15:03:19.889Z,5.65
2023-03-17T15:05:49.048Z,5.35
2023-03-17T15:08:34.462Z,5.50
2023-03-17T15:11:05.585Z,7.25
2023-03-17T15:13:36.316Z,6.90
2023-03-17T15:16:15.909Z,7.45
2023-03-17T15:18:43.975Z,5.90
2023-03-17T15:21:25.033Z,7.25
2023-03-17T15:23:53.005Z,6.55
2023-03-17T15:26:30.478Z,4.30
2023-03-17T15:28:59.620Z,4.57
2023-03-17T15:31:30.526Z,9.27
2023-03-17T15:33:59.134Z,7.35
2023-03-17T15:36:32.703Z,7.13
2023-03-17T15:39:01.074Z,4.38
2023-03-17T15:41:28.978Z,5.20
2023-03-17T15:43:56.877Z,4.75
2023-03-17T15:46:27.411Z,5.57
2023-03-17T15:48:56.846Z,5.88
2023-03-17T15:51:24.747Z,7.53
2023-03-17T15:53:52.776Z,7.15
2023-03-17T15:56:22.422Z,6.32
2023-03-17T15:58:52.251Z,7.53
2023-03-17T16:01:21.591Z,6.57
2023-03-17T16:03:50.418Z,6.22
2023-03-17T16:06:21.463Z,6.13
2023-03-17T16:08:50.535Z,5.40
2023-03-17T16:11:20.396Z,4.78
2023-03-17T16:13:48.672Z,4.20
2023-03-17T16:16:22.539Z,4.47
2023-03-17T16:18:52.571Z,6.10
2023-03-17T16:21:22.773Z,5.10
2023-03-17T16:23:51.300Z,6.03
2023-03-17T16:26:19.347Z,5.25
2023-03-17T16:28:49.165Z,6.23
2023-03-17T16:31:24.551Z,5.13
2023-03-17T16:33:53.537Z,5.53
2023-03-17T16:36:24.485Z,3.80
2023-03-17T16:38:52.865Z,8.27
2023-03-17T16:41:23.601Z,5.55
2023-03-17T16:43:53.713Z,5.00
2023-03-17T16:46:22.573Z,5.07
2023-03-17T16:48:51.244Z,8.97
2023-03-17T16:51:19.578Z,6.23
2023-03-17T16:53:49.186Z,8.23
2023-03-17T16:56:19.570Z,7.47
2023-03-17T16:58:48.112Z,4.80
2023-03-17T17:01:19.519Z,3.95
2023-03-17T17:03:48.835Z,5.75
2023-03-17T17:06:16.890Z,4.60
2023-03-17T17:08:46.018Z,5.30
2023-03-17T17:11:16.712Z,4.47
2023-03-17T17:13:46.782Z,5.93
2023-03-17T17:16:22.193Z,5.70
2023-03-17T17:18:50.503Z,5.00
2023-03-17T17:21:18.314Z,5.90
2023-03-17T17:23:46.549Z,6.07
2023-03-17T17:26:16.313Z,6.68
2023-03-17T17:28:44.142Z,6.40
2023-03-17T17:31:12.015Z,6.07
2023-03-17T17:33:40.517Z,5.35
2023-03-17T17:36:15.048Z,6.82
2023-03-17T17:38:43.110Z,6.00
2023-03-17T17:41:12.278Z,6.53
2023-03-17T17:43:41.704Z,6.10
2023-03-17T17:46:12.527Z,9.23
2023-03-17T17:48:40.472Z,10.60
2023-03-17T17:51:08.607Z,8.77
2023-03-17T17:53:36.792Z,9.18
2023-03-17T17:56:05.589Z,8.60
2023-03-17T17:58:33.812Z,14.93
2023-03-17T18:01:05.324Z,7.35
2023-03-17T18:03:33.807Z,6.38
2023-03-17T18:06:01.990Z,6.10
2023-03-17T18:08:29.878Z,5.80
2023-03-17T18:10:57.798Z,5.10
2023-03-17T18:13:25.788Z,7.00
2023-03-17T18:15:53.590Z,5.43
2023-03-17T18:18:22.760Z,5.85
2023-03-17T18:20:50.848Z,9.20
2023-03-17T18:23:20.082Z,6.18
2023-03-17T18:25:48.121Z,6.40
2023-03-17T18:28:16.172Z,9.25
2023-03-17T18:30:45.469Z,4.90
2023-03-17T18:33:17.543Z,8.18
2023-03-17T18:35:52.000Z,5.93
2023-03-17T18:38:20.233Z,6.22
2023-03-17T18:40:48.090Z,6.95
2023-03-17T18:43:16.058Z,6.20
2023-03-17T18:45:44.537Z,8.07
2023-03-17T18:48:12.370Z,5.78
2023-03-17T18:50:40.296Z,11.88
2023-03-17T18:53:09.779Z,7.80
2023-03-17T18:55:37.601Z,6.55
2023-03-17T18:58:05.424Z,9.95
2023-03-17T19:00:33.734Z,9.70
2023-03-17T19:03:01.779Z,8.60
2023-03-17T19:05:29.729Z,7.70
2023-03-17T19:07:57.521Z,8.23
2023-03-17T19:10:26.966Z,10.20
2023-03-17T19:12:55.296Z,8.57
2023-03-17T19:15:23.097Z,8.55
2023-03-17T19:17:51.147Z,9.20
2023-03-17T19:20:19.686Z,11.82
2023-03-17T19:22:47.520Z,9.60
2023-03-17T19:25:16.434Z,9.18
2023-03-17T19:27:45.816Z,8.00
2023-03-17T19:30:14.602Z,7.35
2023-03-17T19:32:42.543Z,9.85
2023-03-17T19:35:11.539Z,10.67
2023-03-17T19:37:39.391Z,8.07
2023-03-17T19:40:09.663Z,9.38
2023-03-17T19:42:37.885Z,9.02
2023-03-17T19:45:08.394Z,9.02
2023-03-17T19:47:36.265Z,9.48
2023-03-17T19:50:04.357Z,9.02
2023-03-17T19:52:32.236Z,10.05
2023-03-17T19:55:00.127Z,9.80
2023-03-17T19:57:27.904Z,8.43
2023-03-17T19:59:56.182Z,10.20
2023-03-17T20:02:25.505Z,8.65
2023-03-17T20:04:53.424Z,9.63
2023-03-17T20:07:21.398Z,8.93
2023-03-17T20:09:49.301Z,8.25
2023-03-17T20:12:17.120Z,7.60
2023-03-17T20:14:44.953Z,6.53
2023-03-17T20:17:14.084Z,7.60
2023-03-17T20:19:43.269Z,8.50
2023-03-17T20:22:11.542Z,7.70
2023-03-17T20:24:39.340Z,8.25
2023-03-17T20:27:07.904Z,6.28
2023-03-17T20:29:36.380Z,7.72
2023-03-17T20:32:04.595Z,7.40
2023-03-17T20:34:34.442Z,8.50
2023-03-17T20:37:03.893Z,6.93
2023-03-17T20:39:32.469Z,9.73
2023-03-17T20:42:01.486Z,10.68
2023-03-17T20:44:29.277Z,10.02
2023-03-17T20:46:57.707Z,10.77
2023-03-17T20:49:25.556Z,9.43
2023-03-17T20:51:53.394Z,10.13
2023-03-17T20:54:23.152Z,8.45
2023-03-17T20:56:53.521Z,9.27
2023-03-17T20:59:21.297Z,10.63
2023-03-17T21:01:49.803Z,10.70
2023-03-17T21:04:20.620Z,8.30
2023-03-17T21:06:48.540Z,9.05
2023-03-17T21:09:16.336Z,9.82
2023-03-17T21:11:45.683Z,9.43
2023-03-17T21:14:14.508Z,11.25
2023-03-17T21:16:44.669Z,8.95
2023-03-17T21:19:14.537Z,10.35
2023-03-17T21:21:43.000Z,10.35
2023-03-17T21:24:24.698Z,9.60
2023-03-17T21:26:53.950Z,9.38
2023-03-17T21:29:22.680Z,8.45
2023-03-17T21:31:50.915Z,10.77
2023-03-17T21:34:18.787Z,12.38
2023-03-17T21:36:48.516Z,11.07
2023-03-17T21:39:16.670Z,11.05
2023-03-17T21:41:44.775Z,11.68
2023-03-17T21:44:15.801Z,12.40
2023-03-17T21:46:44.266Z,13.35
2023-03-17T21:49:13.100Z,12.73
2023-03-17T21:51:40.889Z,14.98
2023-03-17T21:54:08.858Z,11.83
2023-03-17T21:56:36.616Z,14.57
2023-03-17T21:59:05.668Z,13.75
2023-03-17T22:01:35.876Z,13.32
2023-03-17T22:04:03.684Z,14.23
2023-03-17T22:06:31.455Z,13.07
2023-03-17T22:08:59.846Z,15.82
2023-03-17T22:11:27.625Z,13.43
2023-03-17T22:13:55.745Z,13.55
2023-03-17T22:16:24.337Z,13.82
2023-03-17T22:18:53.628Z,15.05
2023-03-17T22:21:21.805Z,14.32
2023-03-17T22:23:50.093Z,14.00
2023-03-17T22:26:19.514Z,12.88
2023-03-17T22:28:49.280Z,13.43
2023-03-17T22:31:19.110Z,14.00
2023-03-17T22:33:48.761Z,11.00
2023-03-17T22:36:18.115Z,11.00
2023-03-17T22:38:46.097Z,11.57
2023-03-17T22:41:16.532Z,10.73
2023-03-17T22:43:44.582Z,11.67
2023-03-17T22:46:12.733Z,11.75
2023-03-17T22:48:41.113Z,9.98
2023-03-17T22:51:11.196Z,9.70
2023-03-17T22:53:41.331Z,9.45
2023-03-17T22:56:10.886Z,9.68
2023-03-17T22:58:39.252Z,9.50
2023-03-17T23:01:08.129Z,9.10
2023-03-17T23:03:36.332Z,9.07
2023-03-17T23:06:05.529Z,10.43
2023-03-17T23:08:36.300Z,9.18
2023-03-17T23:11:08.236Z,9.07
2023-03-17T23:13:36.356Z,9.48
2023-03-17T23:16:04.563Z,9.00
2023-03-17T23:18:32.379Z,9.90
2023-03-17T23:21:00.810Z,8.82
2023-03-17T23:23:28.685Z,8.93
2023-03-17T23:25:56.629Z,8.60
2023-03-17T23:28:26.110Z,8.95
2023-03-17T23:30:55.093Z,8.30
2023-03-17T23:33:25.348Z,8.40
2023-03-17T23:35:54.026Z,8.90
2023-03-17T23:38:21.937Z,8.68
2023-03-17T23:40:50.859Z,9.25
2023-03-17T23:43:19.446Z,10.23
2023-03-17T23:45:52.504Z,8.68
2023-03-17T23:48:23.145Z,8.93
2023-03-17T23:50:53.297Z,9.40
2023-03-17T23:53:21.209Z,9.65
2023-03-17T23:55:49.221Z,8.98
2023-03-17T23:58:17.169Z,10.23
